Time;durP1;ratioP1;P1;durP2;ratioP2;P2;SDS_P1;SDS_P2;PMS_P1;PMS_P2;Temp;Humidity;BMP_temperature;BMP_pressure;BME280_temperature;BME280_humidity;BME280_pressure;Samples;Min_cycle;Max_cycle;Signal;HPM_P1;HPM_P2
2023/04/21 00:00:43;;;;;;;26.77;25.10;;;;;;;15.62;44.24;101387.28;5016528;28;20030;-85
2023/04/21 00:03:08;;;;;;;29.65;27.45;;;;;;;15.61;44.61;101383.75;5016280;28;20030;-84
2023/04/21 00:05:34;;;;;;;27.67;26.02;;;;;;;15.59;44.36;101375.81;5016834;28;20041;-83
2023/04/21 00:07:59;;;;;;;31.00;28.95;;;;;;;15.59;44.72;101380.44;5016587;28;20065;-83
2023/04/21 00:10:25;;;;;;;27.58;25.70;;;;;;;15.57;44.45;101382.59;5016448;28;20116;-83
2023/04/21 00:12:50;;;;;;;28.63;26.73;;;;;;;15.56;44.42;101379.06;5016900;28;20112;-83
2023/04/21 00:15:16;;;;;;;29.35;27.27;;;;;;;15.56;44.65;101376.34;5016550;28;20100;-84
2023/04/21 00:17:42;;;;;;;28.20;26.40;;;;;;;15.55;44.69;101382.88;5016683;28;20429;-85
2023/04/21 00:20:09;;;;;;;30.63;28.17;;;;;;;15.55;44.58;101363.00;5016279;28;20073;-85
2023/04/21 00:22:35;;;;;;;28.92;26.80;;;;;;;15.53;44.55;101365.97;5016276;28;20069;-85
2023/04/21 00:25:01;;;;;;;29.25;27.15;;;;;;;15.53;44.84;101370.63;5016052;28;20026;-81
2023/04/21 00:27:26;;;;;;;27.75;25.95;;;;;;;15.52;44.97;101367.06;5014863;28;20056;-84
2023/04/21 00:29:51;;;;;;;29.67;27.45;;;;;;;15.51;45.05;101368.13;5016333;28;20029;-83
2023/04/21 00:32:17;;;;;;;29.23;27.17;;;;;;;15.50;44.80;101358.34;5015620;28;20113;-83
2023/04/21 00:34:42;;;;;;;29.88;27.77;;;;;;;15.50;44.84;101360.25;5015552;28;20061;-84
2023/04/21 00:37:07;;;;;;;30.92;28.70;;;;;;;15.48;45.07;101355.06;5017265;28;20030;-85
2023/04/21 00:39:33;;;;;;;30.52;28.20;;;;;;;15.47;45.08;101345.25;5016335;28;20041;-85
2023/04/21 00:41:58;;;;;;;30.95;28.65;;;;;;;15.47;44.99;101345.25;5015395;28;20069;-87
2023/04/21 00:44:24;;;;;;;30.33;27.92;;;;;;;15.47;44.98;101345.25;5015508;28;20042;-85
2023/04/21 00:46:49;;;;;;;29.25;26.70;;;;;;;15.47;44.98;101355.31;5015665;28;20069;-84
2023/04/21 00:49:14;;;;;;;31.40;29.10;;;;;;;15.44;44.89;101351.19;5015390;28;20393;-87
2023/04/21 00:51:40;;;;;;;28.17;26.15;;;;;;;15.43;44.80;101344.13;5015803;28;20040;-86
2023/04/21 00:54:08;;;;;;;26.38;24.55;;;;;;;15.43;45.01;101341.41;5015728;28;20125;-86
2023/04/21 00:56:35;;;;;;;27.92;26.08;;;;;;;15.43;45.05;101341.41;5015748;28;20034;-85
2023/04/21 00:59:03;;;;;;;29.58;27.48;;;;;;;15.41;45.04;101348.19;5015903;28;20041;-86
2023/04/21 01:01:30;;;;;;;31.30;28.85;;;;;;;15.41;45.21;101353.63;5015578;28;20032;-85
2023/04/21 01:03:58;;;;;;;28.20;26.13;;;;;;;15.39;45.21;101350.34;5014304;28;20026;-84
2023/04/21 01:06:24;;;;;;;29.42;27.33;;;;;;;15.38;45.03;101346.81;5015596;28;20505;-84
2023/04/21 01:08:51;;;;;;;33.22;30.30;;;;;;;15.37;45.17;101347.88;5016523;28;20359;-82
2023/04/21 01:11:17;;;;;;;28.75;26.75;;;;;;;15.37;45.29;101347.88;5016159;28;20045;-84
2023/04/21 01:13:42;;;;;;;28.10;26.15;;;;;;;15.35;45.22;101352.78;4998472;28;20038;-84
2023/04/21 01:16:08;;;;;;;29.77;27.58;;;;;;;15.35;45.08;101352.78;5015038;28;20123;-85
2023/04/21 01:18:35;;;;;;;28.77;26.63;;;;;;;15.34;45.30;101351.13;5015368;28;20044;-83
2023/04/21 01:21:01;;;;;;;29.33;26.98;;;;;;;15.33;45.28;101330.44;5015952;28;20026;-84
2023/04/21 01:23:26;;;;;;;30.30;27.90;;;;;;;15.32;44.98;101339.66;4997594;28;20088;-83
2023/04/21 01:25:52;;;;;;;27.77;25.92;;;;;;;15.32;45.35;101331.50;5014616;28;20394;-84
2023/04/21 01:28:22;;;;;;;31.92;29.33;;;;;;;15.30;45.18;101334.50;5014576;28;20033;-82
2023/04/21 01:30:47;;;;;;;31.33;28.73;;;;;;;15.31;45.10;101321.69;5015573;28;20072;-80
2023/04/21 01:33:13;;;;;;;28.77;26.52;;;;;;;15.30;45.31;101317.34;5015007;28;20116;-82
2023/04/21 01:35:39;;;;;;;29.05;26.67;;;;;;;15.29;45.27;101321.13;5014421;28;20073;-83
2023/04/21 01:38:04;;;;;;;27.92;25.92;;;;;;;15.27;45.20;101309.69;5016590;28;20500;-83
2023/04/21 01:40:30;;;;;;;27.38;25.33;;;;;;;15.26;45.48;101308.88;4998460;28;20116;-84
2023/04/21 01:42:55;;;;;;;28.15;26.08;;;;;;;15.26;45.48;101313.50;4998506;28;20068;-85
2023/04/21 01:45:21;;;;;;;28.83;26.80;;;;;;;15.24;45.36;101302.03;5016095;28;20030;-84
2023/04/21 01:47:46;;;;;;;29.88;27.85;;;;;;;15.24;45.57;101310.22;5014473;28;20118;-84
2023/04/21 01:50:12;;;;;;;28.17;26.13;;;;;;;15.23;45.51;101308.59;5015043;28;20026;-76
2023/04/21 01:52:37;;;;;;;29.13;26.75;;;;;;;15.23;45.58;101303.13;5014750;28;20497;-82
2023/04/21 01:55:03;;;;;;;26.95;25.02;;;;;;;15.23;45.58;101300.41;5013754;28;20543;-83
2023/04/21 01:57:28;;;;;;;28.58;26.40;;;;;;;15.21;45.45;101299.84;5014713;28;20458;-84
2023/04/21 01:59:54;;;;;;;28.63;26.55;;;;;;;15.21;45.45;101297.13;5014182;28;20041;-85
2023/04/21 02:02:19;;;;;;;28.85;26.85;;;;;;;15.20;45.47;101284.63;5015159;28;20041;-81
2023/04/21 02:04:45;;;;;;;26.75;24.92;;;;;;;15.17;45.42;101276.94;5015474;28;20386;-84
2023/04/21 02:07:10;;;;;;;29.58;27.67;;;;;;;15.17;45.67;101268.78;4998159;28;20033;-84
2023/04/21 02:09:36;;;;;;;28.90;26.55;;;;;;;15.17;45.56;101271.50;5014740;28;20399;-85
2023/04/21 02:12:02;;;;;;;29.65;27.05;;;;;;;15.15;45.49;101267.16;5014598;28;20385;-85
2023/04/21 02:14:27;;;;;;;31.65;29.10;;;;;;;15.15;45.50;101279.94;5014279;28;20037;-85
2023/04/21 02:16:54;;;;;;;29.02;27.08;;;;;;;15.14;45.47;101272.84;5013667;28;20054;-84
2023/04/21 02:19:20;;;;;;;28.63;26.30;;;;;;;15.14;45.62;101275.56;5014057;28;20065;-85
2023/04/21 02:21:45;;;;;;;28.80;26.88;;;;;;;15.12;45.92;101266.88;5013703;28;20125;-84
2023/04/21 02:24:11;;;;;;;28.30;26.27;;;;;;;15.12;45.62;101256.81;5014602;28;20069;-84
2023/04/21 02:26:36;;;;;;;28.33;26.27;;;;;;;15.11;45.62;101254.31;5013881;28;20038;-84
2023/04/21 02:29:02;;;;;;;27.58;25.65;;;;;;;15.09;45.68;101257.31;5014436;28;20037;-83
2023/04/21 02:31:27;;;;;;;30.10;27.55;;;;;;;15.08;45.72;101258.38;5013863;28;20038;-83
2023/04/21 02:33:53;;;;;;;28.70;26.48;;;;;;;15.08;45.60;101257.56;5013950;28;20033;-83
2023/04/21 02:36:19;;;;;;;27.00;24.92;;;;;;;15.07;45.74;101239.63;5013942;28;20065;-85
2023/04/21 02:38:44;;;;;;;29.38;27.17;;;;;;;15.06;45.80;101251.56;5013851;28;20382;-84
2023/04/21 02:41:09;;;;;;;28.17;25.88;;;;;;;15.04;45.64;101242.84;5013980;28;20038;-85
2023/04/21 02:43:35;;;;;;;27.65;25.48;;;;;;;15.04;45.72;101242.84;5013754;28;20041;-81
2023/04/21 02:46:09;;;;;;;27.88;25.88;;;;;;;15.03;45.92;101247.47;5014084;28;20446;-84
2023/04/21 02:48:35;;;;;;;28.20;26.10;;;;;;;15.03;45.50;101252.09;5014369;28;20042;-79
2023/04/21 02:51:01;;;;;;;26.95;24.98;;;;;;;15.02;45.77;101237.69;5013904;28;20167;-81
2023/04/21 02:53:26;;;;;;;27.85;25.73;;;;;;;15.00;45.74;101248.00;5013761;28;20058;-84
2023/04/21 02:55:52;;;;;;;27.08;25.02;;;;;;;15.00;46.02;101248.00;5013593;28;20045;-84
2023/04/21 02:58:17;;;;;;;28.30;26.20;;;;;;;14.99;45.72;101245.53;5013916;28;20114;-84
2023/04/21 03:00:43;;;;;;;27.20;25.00;;;;;;;14.98;45.89;101250.16;5013749;28;20033;-85
2023/04/21 03:03:08;;;;;;;26.42;24.40;;;;;;;14.97;45.86;101248.53;5014004;28;20059;-85
2023/04/21 03:05:33;;;;;;;31.02;28.52;;;;;;;14.97;46.04;101253.97;5015008;28;20434;-84
2023/04/21 03:07:59;;;;;;;28.02;26.02;;;;;;;14.97;45.89;101247.69;5017319;28;20044;-84
2023/04/21 03:10:24;;;;;;;28.67;26.65;;;;;;;14.96;45.93;101246.84;5017655;28;20473;-84
2023/04/21 03:12:50;;;;;;;29.42;27.23;;;;;;;14.95;46.02;101241.69;5000325;28;20030;-84
2023/04/21 03:15:15;;;;;;;27.83;25.55;;;;;;;14.94;45.71;101240.84;5017314;28;20116;-85
2023/04/21 03:17:41;;;;;;;27.42;25.40;;;;;;;14.92;45.90;101232.97;5017567;28;20061;-84
2023/04/21 03:20:08;;;;;;;25.17;23.55;;;;;;;14.91;45.98;101231.31;5016850;28;20065;-85
2023/04/21 03:22:37;;;;;;;30.98;28.38;;;;;;;14.90;45.82;101235.13;5017203;28;20073;-84
2023/04/21 03:25:03;;;;;;;27.30;25.05;;;;;;;14.89;45.86;101227.22;5017644;28;20038;-86
2023/04/21 03:27:29;;;;;;;27.15;25.05;;;;;;;14.88;45.83;101228.31;5018923;28;20038;-85
2023/04/21 03:29:55;;;;;;;26.02;24.05;;;;;;;14.88;45.81;101228.31;5017916;28;20426;-85
2023/04/21 03:32:20;;;;;;;30.00;27.58;;;;;;;14.87;45.93;101232.13;5017142;28;20064;-85
2023/04/21 03:34:46;;;;;;;28.08;25.90;;;;;;;14.86;45.93;101225.84;5017015;28;20062;-85
2023/04/21 03:37:11;;;;;;;28.45;25.95;;;;;;;14.86;46.23;101230.47;5017378;28;20026;-87
2023/04/21 03:39:36;;;;;;;29.83;27.42;;;;;;;14.85;46.03;101228.84;5017246;28;20136;-85
2023/04/21 03:42:03;;;;;;;26.50;24.42;;;;;;;14.84;46.12;101228.00;4999630;28;20037;-86
2023/04/21 03:44:29;;;;;;;29.88;27.05;;;;;;;14.83;46.02;101220.91;5017703;28;20041;-87
2023/04/21 03:46:54;;;;;;;27.67;25.10;;;;;;;14.83;45.90;101222.81;5016904;28;20132;-84
2023/04/21 03:49:20;;;;;;;28.52;26.27;;;;;;;14.82;45.89;101215.75;5016725;28;20034;-85
2023/04/21 03:51:45;;;;;;;27.38;25.48;;;;;;;14.80;46.32;101218.72;5016654;28;20431;-86
2023/04/21 03:54:11;;;;;;;26.58;24.73;;;;;;;14.80;45.94;101217.91;5016814;28;20044;-85
2023/04/21 03:56:36;;;;;;;27.15;24.83;;;;;;;14.80;46.04;101220.63;5016923;28;20061;-86
2023/04/21 03:59:02;;;;;;;27.90;25.63;;;;;;;14.79;46.07;101227.13;5016902;28;20030;-85
2023/04/21 04:01:27;;;;;;;29.38;26.95;;;;;;;14.78;45.99;101228.22;5016197;28;20037;-87
2023/04/21 04:03:52;;;;;;;27.75;25.58;;;;;;;14.77;46.28;101227.41;5016531;28;20030;-87
2023/04/21 04:06:18;;;;;;;27.88;25.60;;;;;;;14.76;46.08;101230.38;5016982;28;20112;-87
2023/04/21 04:08:43;;;;;;;31.27;28.33;;;;;;;14.75;46.18;101229.56;5016156;28;20030;-86
2023/04/21 04:11:08;;;;;;;28.92;26.25;;;;;;;14.75;46.32;101231.47;5017290;28;20462;-87
2023/04/21 04:13:34;;;;;;;29.85;27.23;;;;;;;14.73;46.12;101226.28;5016679;28;20037;-86
2023/04/21 04:16:00;;;;;;;28.73;26.48;;;;;;;14.73;46.12;101226.28;5016391;28;20050;-87
2023/04/21 04:18:25;;;;;;;27.85;25.58;;;;;;;14.71;46.12;101226.53;5015587;28;20394;-86
2023/04/21 04:20:51;;;;;;;29.08;26.58;;;;;;;14.70;46.23;101216.72;5016614;28;20450;-87
2023/04/21 04:23:16;;;;;;;28.63;26.52;;;;;;;14.70;46.25;101211.28;5016914;28;20103;-85
2023/04/21 04:25:41;;;;;;;31.60;28.00;;;;;;;14.70;46.34;101210.47;5016926;28;20420;-86
2023/04/21 04:28:08;;;;;;;30.48;27.45;;;;;;;14.69;46.13;101209.66;5016092;28;20040;-85
2023/04/21 04:30:34;;;;;;;28.33;26.15;;;;;;;14.68;46.27;101205.28;5016725;28;20127;-85
2023/04/21 04:33:00;;;;;;;27.75;25.77;;;;;;;14.68;46.40;101201.75;5017888;28;20045;-85
2023/04/21 04:35:25;;;;;;;31.88;28.70;;;;;;;14.67;46.47;101211.00;5017482;28;20033;-86
2023/04/21 04:37:51;;;;;;;27.90;25.48;;;;;;;14.65;46.45;101208.53;5017026;28;20153;-89
2023/04/21 04:40:16;;;;;;;29.05;26.60;;;;;;;14.65;46.45;101210.44;5016476;28;20030;-87
2023/04/21 04:42:44;;;;;;;32.28;29.45;;;;;;;14.64;46.49;101208.78;5016894;28;20038;-88
2023/04/21 04:45:10;;;;;;;29.58;27.05;;;;;;;14.63;46.40;101207.97;4999707;28;20355;-87
2023/04/21 04:47:36;;;;;;;32.38;29.52;;;;;;;14.62;46.66;101219.94;5016058;28;20045;-86
2023/04/21 04:50:02;;;;;;;30.75;27.75;;;;;;;14.61;46.65;101217.47;5015939;28;20056;-86
2023/04/21 04:52:27;;;;;;;34.13;26.58;;;;;;;14.61;46.75;101220.19;5016714;28;20034;-87
2023/04/21 04:54:53;;;;;;;29.25;26.90;;;;;;;14.59;46.64;101231.31;4998558;28;20044;-87
2023/04/21 04:57:18;;;;;;;31.23;28.13;;;;;;;14.60;46.63;101221.28;4998212;28;20098;-88
2023/04/21 04:59:43;;;;;;;26.52;24.70;;;;;;;14.58;46.69;101223.41;4998776;28;20025;-88
2023/04/21 05:02:09;;;;;;;29.02;26.40;;;;;;;14.57;46.70;101225.31;5016540;28;20120;-87
2023/04/21 05:04:35;;;;;;;27.75;25.48;;;;;;;14.56;46.65;101220.94;5016735;28;20034;-88
2023/04/21 05:07:00;;;;;;;30.00;27.25;;;;;;;14.56;46.57;101226.38;5016041;28;20438;-88
2023/04/21 05:09:26;;;;;;;32.53;29.30;;;;;;;14.56;46.52;101231.00;5016985;28;20034;-87
2023/04/21 05:11:51;;;;;;;29.52;26.60;;;;;;;14.55;46.49;101230.19;5018779;28;20033;-87
2023/04/21 05:14:17;;;;;;;30.63;27.58;;;;;;;14.55;46.51;101230.19;5028672;28;20034;-88
2023/04/21 05:16:42;;;;;;;30.98;28.25;;;;;;;14.54;46.60;101223.13;5017429;28;20196;-87
2023/04/21 05:19:08;;;;;;;31.70;27.95;;;;;;;14.54;46.60;101228.56;4998331;28;20042;-87
2023/04/21 05:21:33;;;;;;;29.30;26.67;;;;;;;14.53;46.61;101231.50;5015776;28;20049;-86
2023/04/21 05:23:59;;;;;;;30.23;27.38;;;;;;;14.52;46.60;101232.59;5015696;28;20112;-87
2023/04/21 05:26:26;;;;;;;25.42;23.20;;;;;;;14.52;46.60;101236.13;5016882;28;20036;-87
2023/04/21 05:28:56;;;;;;;29.80;26.90;;;;;;;14.51;46.60;101237.19;4999049;28;20041;-87
2023/04/21 05:31:22;;;;;;;30.80;27.58;;;;;;;14.50;46.45;101239.06;5014639;28;20425;-84
2023/04/21 05:33:48;;;;;;;30.15;27.15;;;;;;;14.50;46.68;101235.53;5015015;28;20041;-85
2023/04/21 05:36:13;;;;;;;29.63;27.10;;;;;;;14.50;46.58;101249.13;5016669;28;20069;-88
2023/04/21 05:38:39;;;;;;;34.15;30.55;;;;;;;14.49;46.60;101245.59;5016062;28;20066;-88
2023/04/21 05:41:04;;;;;;;31.08;28.02;;;;;;;14.49;46.80;101261.09;5016494;28;20095;-87
2023/04/21 05:43:33;;;;;;;33.33;30.05;;;;;;;14.48;46.89;101254.00;5015692;28;20062;-87
2023/04/21 05:46:02;;;;;;;29.65;26.67;;;;;;;14.46;46.93;101259.72;5014818;28;20030;-86
2023/04/21 05:48:28;;;;;;;30.90;27.73;;;;;;;14.46;46.86;101257.00;5014906;28;20033;-85
2023/04/21 05:50:54;;;;;;;26.15;24.00;;;;;;;14.45;46.86;101262.69;5015089;28;20034;-86
2023/04/21 05:53:20;;;;;;;31.48;28.42;;;;;;;14.44;46.73;101256.44;5014824;28;20034;-87
2023/04/21 05:55:45;;;;;;;34.67;31.30;;;;;;;14.43;46.86;101262.91;5014570;28;20038;-86
2023/04/21 05:58:11;;;;;;;34.75;31.05;;;;;;;14.45;47.05;101259.97;5014641;28;20137;-87
2023/04/21 06:00:36;;;;;;;31.30;27.95;;;;;;;14.43;46.94;101268.34;5014474;28;20042;-77
2023/04/21 06:03:02;;;;;;;31.75;28.63;;;;;;;14.43;47.12;101259.38;5015192;28;20061;-87
2023/04/21 06:05:27;;;;;;;34.45;30.90;;;;;;;14.43;47.13;101267.53;5015545;28;20030;-86
2023/04/21 06:07:53;;;;;;;40.42;32.65;;;;;;;14.43;47.22;101260.19;5014693;28;20045;-87
2023/04/21 06:10:20;;;;;;;31.27;28.25;;;;;;;14.43;46.95;101265.63;5014472;28;20034;-84
2023/04/21 06:12:45;;;;;;;33.40;30.00;;;;;;;14.42;47.33;101250.41;5014136;28;20037;-85
2023/04/21 06:15:10;;;;;;;25.60;23.75;;;;;;;14.42;47.27;101260.47;5014737;28;20038;-83
2023/04/21 06:17:36;;;;;;;29.65;26.55;;;;;;;14.41;47.08;101254.22;4981009;28;20064;-85
2023/04/21 06:20:02;;;;;;;29.50;26.83;;;;;;;14.41;47.04;101245.22;5014297;28;20029;-84
2023/04/21 06:22:28;;;;;;;31.13;28.15;;;;;;;14.40;47.11;101251.75;5014451;28;20493;-85
2023/04/21 06:24:53;;;;;;;41.08;34.05;;;;;;;14.40;47.11;101244.41;5014704;28;20034;-86
2023/04/21 06:27:19;;;;;;;35.28;31.60;;;;;;;14.41;47.08;101259.66;5014192;28;20037;-85
2023/04/21 06:29:44;;;;;;;34.72;31.08;;;;;;;14.40;47.20;101258.00;5014023;28;20513;-86
2023/04/21 06:32:10;;;;;;;25.92;23.85;;;;;;;14.40;47.00;101259.91;5014089;28;20034;-84
2023/04/21 06:34:36;;;;;;;24.77;22.85;;;;;;;14.39;47.21;101258.25;5013933;28;20117;-82
2023/04/21 06:37:02;;;;;;;31.05;27.95;;;;;;;14.39;47.22;101264.53;5013748;28;20041;-81
2023/04/21 06:39:27;;;;;;;31.70;28.20;;;;;;;14.39;47.25;101259.09;5013662;28;20398;-84
2023/04/21 06:41:53;;;;;;;32.08;29.15;;;;;;;14.39;47.29;101260.97;5013575;28;20037;-85
2023/04/21 06:44:18;;;;;;;36.95;32.28;;;;;;;14.39;47.30;101258.25;5014958;28;20057;-88
2023/04/21 06:46:44;;;;;;;33.90;30.27;;;;;;;14.39;47.17;101260.97;5026845;28;20030;-83
2023/04/21 06:49:10;;;;;;;31.58;28.35;;;;;;;14.37;47.38;101255.00;5028091;28;20034;-85
2023/04/21 06:51:36;;;;;;;29.13;26.15;;;;;;;14.37;47.20;101249.56;5026965;28;20029;-86
2023/04/21 06:54:02;;;;;;;29.02;26.25;;;;;;;14.38;47.18;101251.19;5011444;28;20042;-85
2023/04/21 06:56:28;;;;;;;36.10;32.20;;;;;;;14.38;47.57;101249.28;5022486;28;20089;-86
2023/04/21 06:58:54;;;;;;;33.92;29.63;;;;;;;14.38;47.23;101243.84;5015817;28;20042;-86
2023/04/21 07:01:19;;;;;;;28.48;26.25;;;;;;;14.39;47.50;101252.81;5016574;28;20086;-84
2023/04/21 07:03:45;;;;;;;39.65;32.78;;;;;;;14.34;47.53;101253.59;5022200;28;20045;-85
2023/04/21 07:06:11;;;;;;;32.50;28.00;;;;;;;14.37;47.33;101257.72;5015865;28;20030;-88
2023/04/21 07:08:36;;;;;;;29.05;26.60;;;;;;;14.38;47.53;101253.91;5014290;28;20042;-81
2023/04/21 07:11:02;;;;;;;30.10;27.13;;;;;;;14.37;47.52;101249.56;5013542;28;20042;-82
2023/04/21 07:13:27;;;;;;;37.05;31.13;;;;;;;14.37;47.39;101255.81;5013754;28;20034;-79
2023/04/21 07:15:53;;;;;;;30.55;27.80;;;;;;;14.38;47.27;101254.72;5013405;28;20052;-81
2023/04/21 07:18:18;;;;;;;28.65;26.27;;;;;;;14.38;47.68;101243.03;5013646;28;20454;-81
2023/04/21 07:20:44;;;;;;;33.65;29.85;;;;;;;14.39;47.52;101245.50;5013476;28;20363;-81
2023/04/21 07:23:09;;;;;;;35.92;31.83;;;;;;;14.40;47.50;101254.47;4995774;28;20045;-83
2023/04/21 07:25:35;;;;;;;35.22;31.27;;;;;;;14.41;47.79;101245.22;4996209;28;20034;-82
2023/04/21 07:28:02;;;;;;;33.78;30.45;;;;;;;14.43;47.74;101245.81;5013800;28;20459;-83
2023/04/21 07:30:28;;;;;;;35.30;31.80;;;;;;;14.44;47.78;101245.56;5013972;28;20030;-81
2023/04/21 07:32:53;;;;;;;38.53;31.50;;;;;;;14.47;47.59;101244.22;5013528;28;20026;-81
2023/04/21 07:35:19;;;;;;;33.05;29.90;;;;;;;14.48;47.68;101243.13;5013991;28;20378;-79
2023/04/21 07:37:44;;;;;;;34.50;30.63;;;;;;;14.49;47.79;101245.59;4996500;28;20121;-77
2023/04/21 07:40:10;;;;;;;30.10;27.23;;;;;;;14.51;47.68;101248.06;5013693;28;20464;-80
2023/04/21 07:42:36;;;;;;;33.50;30.52;;;;;;;14.53;47.78;101245.94;5013352;28;20049;-81
2023/04/21 07:45:02;;;;;;;32.65;29.38;;;;;;;14.54;48.02;101247.59;5013801;28;20435;-76
2023/04/21 07:47:27;;;;;;;30.58;27.48;;;;;;;14.56;48.15;101250.03;5015113;28;20030;-82
2023/04/21 07:49:53;;;;;;;34.53;30.83;;;;;;;14.58;48.06;101245.97;5014165;28;20032;-81
2023/04/21 07:52:19;;;;;;;31.30;28.23;;;;;;;14.59;48.45;101250.34;4996614;28;20037;-75
2023/04/21 07:54:44;;;;;;;35.33;31.67;;;;;;;14.61;48.00;101245.47;5016810;28;20394;-83
2023/04/21 07:57:09;;;;;;;40.33;33.22;;;;;;;14.64;48.01;101250.41;5017428;28;20022;-81
2023/04/21 07:59:35;;;;;;;37.60;30.63;;;;;;;14.67;48.18;101246.34;5017634;28;20045;-87
2023/04/21 08:02:00;;;;;;;28.67;26.30;;;;;;;14.68;48.03;101248.78;5019811;28;20044;-84
2023/04/21 08:04:26;;;;;;;36.88;31.20;;;;;;;14.69;48.30;101241.44;5017370;28;20117;-72
2023/04/21 08:06:51;;;;;;;23.33;21.85;;;;;;;14.71;48.23;101248.28;5016040;28;20113;-69
2023/04/21 08:09:17;;;;;;;28.73;26.17;;;;;;;14.75;48.20;101247.78;5016431;28;20030;-83
2023/04/21 08:11:42;;;;;;;32.08;29.20;;;;;;;14.79;48.12;101246.16;5016459;28;20030;-74
2023/04/21 08:14:11;;;;;;;29.90;27.38;;;;;;;14.80;47.92;101243.19;5016273;28;20109;-85
2023/04/21 08:16:37;;;;;;;34.05;30.90;;;;;;;14.83;48.01;101242.69;5016198;28;20058;-84
2023/04/21 08:19:03;;;;;;;35.53;32.05;;;;;;;14.86;48.17;101244.06;5016178;28;20042;-83
2023/04/21 08:21:29;;;;;;;31.40;28.50;;;;;;;14.87;48.24;101243.81;5016117;28;20122;-83
2023/04/21 08:23:54;;;;;;;32.05;29.25;;;;;;;14.87;48.39;101249.25;5016111;28;20065;-83
2023/04/21 08:26:24;;;;;;;29.45;26.90;;;;;;;14.91;48.30;101242.19;5016605;28;20089;-84
2023/04/21 08:28:50;;;;;;;27.17;25.05;;;;;;;14.95;48.27;101238.97;5016718;28;20113;-85
2023/04/21 08:31:18;;;;;;;28.45;26.35;;;;;;;14.97;48.62;101240.34;5016023;28;20052;-85
2023/04/21 08:33:43;;;;;;;32.92;29.95;;;;;;;15.00;48.60;101239.84;5016466;28;20072;-83
2023/04/21 08:36:10;;;;;;;32.60;29.60;;;;;;;15.05;48.46;101249.94;5016454;28;20121;-80
2023/04/21 08:38:36;;;;;;;34.75;31.27;;;;;;;15.09;48.57;101240.16;5015538;28;20492;-83
2023/04/21 08:41:02;;;;;;;28.63;26.27;;;;;;;15.14;48.30;101243.75;5015628;28;20036;-83
2023/04/21 08:43:28;;;;;;;28.17;26.00;;;;;;;15.18;48.23;101237.78;5015606;28;20432;-81
2023/04/21 08:45:54;;;;;;;32.25;29.23;;;;;;;15.21;48.40;101232.63;5015655;28;20556;-82
2023/04/21 08:48:22;;;;;;;28.13;25.92;;;;;;;15.23;48.40;101230.47;5015917;28;20112;-83
2023/04/21 08:50:49;;;;;;;26.08;24.02;;;;;;;15.25;48.71;101238.38;5016490;28;20344;-83
2023/04/21 08:53:15;;;;;;;32.70;29.65;;;;;;;15.28;48.68;101235.94;5016678;28;20033;-84
2023/04/21 08:55:41;;;;;;;31.10;28.45;;;;;;;15.34;48.46;101231.34;5015500;28;20116;-87
2023/04/21 08:58:08;;;;;;;27.73;25.85;;;;;;;15.38;48.56;101235.19;5016073;28;20040;-83
2023/04/21 09:00:34;;;;;;;32.83;29.77;;;;;;;15.44;48.68;101233.31;5015395;28;20079;-85
2023/04/21 09:03:01;;;;;;;30.50;28.02;;;;;;;15.47;48.42;101228.19;5014866;28;20064;-83
2023/04/21 09:05:29;;;;;;;28.10;26.20;;;;;;;15.50;48.42;101229.56;5015267;28;20576;-83
2023/04/21 09:08:17;;;;;;;26.35;24.48;;;;;;;15.53;48.46;101223.59;5015499;28;20070;-82
2023/04/21 09:10:49;;;;;;;30.20;27.30;;;;;;;15.60;48.59;101221.44;5015407;28;20034;-83
2023/04/21 09:13:16;;;;;;;27.23;24.88;;;;;;;15.66;48.62;101219.56;5015586;28;20485;-81
2023/04/21 09:15:45;;;;;;;32.20;29.23;;;;;;;15.72;48.35;101210.34;5015497;28;20030;-82
2023/04/21 09:18:14;;;;;;;28.95;26.70;;;;;;;15.76;48.52;101223.19;5015256;28;20113;-82
2023/04/21 09:20:42;;;;;;;28.90;26.63;;;;;;;15.81;48.19;101213.41;5015147;28;20108;-81
2023/04/21 09:23:08;;;;;;;33.00;30.27;;;;;;;15.85;48.92;101211.75;5015599;28;20104;-83
2023/04/21 09:25:34;;;;;;;27.60;25.80;;;;;;;15.88;48.82;101208.53;5015180;28;20310;-82
2023/04/21 09:28:00;;;;;;;28.27;26.50;;;;;;;15.90;48.87;101209.91;5014901;28;20022;-82
2023/04/21 09:30:26;;;;;;;29.70;27.60;;;;;;;15.91;49.54;101221.59;4997421;28;20033;-83
2023/04/21 09:32:56;;;;;;;30.30;28.00;;;;;;;15.95;49.73;101212.66;5015176;28;20425;-83
2023/04/21 09:35:22;;;;;;;32.92;30.13;;;;;;;16.00;49.33;101214.53;4997659;28;20037;-82
2023/04/21 09:37:47;;;;;;;32.40;29.80;;;;;;;16.06;49.17;101213.50;5015073;28;20140;-84
2023/04/21 09:40:16;;;;;;;33.92;30.95;;;;;;;16.11;49.06;101208.06;5014756;28;20089;-85
2023/04/21 09:42:42;;;;;;;31.52;28.58;;;;;;;16.16;48.67;101209.97;4996986;28;20358;-82
2023/04/21 09:45:09;;;;;;;34.42;31.33;;;;;;;16.20;48.96;101200.16;5015287;28;20029;-82
2023/04/21 09:47:40;;;;;;;28.63;26.27;;;;;;;16.23;48.72;101205.09;5014562;28;20504;-84
2023/04/21 09:50:07;;;;;;;34.08;31.23;;;;;;;16.27;49.00;101199.91;5014544;28;20080;-81
2023/04/21 09:52:33;;;;;;;34.65;31.63;;;;;;;16.31;48.83;101195.56;5014455;28;20477;-83
2023/04/21 09:55:03;;;;;;;33.92;31.25;;;;;;;16.35;48.86;101186.56;5014642;28;20080;-82
2023/04/21 09:57:31;;;;;;;34.30;31.38;;;;;;;16.39;49.06;101187.66;4997055;28;20034;-83
2023/04/21 10:00:04;;;;;;;31.90;29.17;;;;;;;16.43;48.76;101188.75;5013087;28;20454;-83
2023/04/21 10:02:30;;;;;;;34.53;31.55;;;;;;;16.48;49.01;101193.41;5014782;28;20022;-84
2023/04/21 10:04:57;;;;;;;33.33;30.88;;;;;;;16.52;49.12;101186.31;5014660;28;20104;-83
2023/04/21 10:07:22;;;;;;;31.23;29.00;;;;;;;16.56;48.99;101189.31;5014027;28;20041;-83
2023/04/21 10:09:54;;;;;;;34.10;31.33;;;;;;;16.61;49.05;101181.97;5014475;28;20034;-86
2023/04/21 10:12:20;;;;;;;31.33;29.15;;;;;;;16.64;48.84;101180.59;5014870;28;20034;-85
2023/04/21 10:14:53;;;;;;;31.55;29.25;;;;;;;16.68;48.99;101176.22;5014214;28;20038;-84
2023/04/21 10:17:24;;;;;;;30.65;28.50;;;;;;;16.72;49.06;101166.41;5014752;28;20156;-83
2023/04/21 10:19:50;;;;;;;33.50;31.02;;;;;;;16.77;48.71;101166.41;5014580;28;20026;-82
2023/04/21 10:22:29;;;;;;;35.03;32.03;;;;;;;16.81;48.61;101161.25;5013870;28;20124;-83
2023/04/21 10:24:55;;;;;;;33.95;31.45;;;;;;;16.85;48.81;101156.88;5014642;28;20034;-85
2023/04/21 10:27:36;;;;;;;32.92;30.42;;;;;;;16.89;48.75;101157.16;5013987;28;20463;-82
2023/04/21 10:30:16;;;;;;;31.30;29.42;;;;;;;16.92;49.02;101156.59;4996150;28;20025;-78
2023/04/21 10:32:44;;;;;;;32.70;30.10;;;;;;;16.97;48.93;101151.94;5014503;28;20037;-83
2023/04/21 10:35:21;;;;;;;31.65;29.65;;;;;;;17.01;49.30;101154.94;5013839;28;20116;-82
2023/04/21 10:37:48;;;;;;;30.45;28.45;;;;;;;17.07;49.18;101143.75;5014419;28;20442;-83
2023/04/21 10:40:29;;;;;;;32.85;30.33;;;;;;;17.08;49.25;101131.75;5015591;28;20038;-83
2023/04/21 10:42:54;;;;;;;31.55;29.30;;;;;;;17.12;49.34;101134.72;5014039;28;20022;-81
2023/04/21 10:45:19;;;;;;;33.45;30.77;;;;;;;17.16;49.32;101135.81;5014176;28;20477;-84
2023/04/21 10:47:50;;;;;;;33.42;31.08;;;;;;;17.22;49.55;101128.44;4995876;28;20137;-84
2023/04/21 10:50:21;;;;;;;32.17;29.83;;;;;;;17.28;48.91;101127.31;5013961;28;20034;-83
2023/04/21 10:52:53;;;;;;;34.08;31.63;;;;;;;17.33;48.96;101123.75;5014380;28;20022;-83
2023/04/21 10:55:20;;;;;;;35.33;32.55;;;;;;;17.35;48.79;101122.38;5013772;28;20026;-83
2023/04/21 10:57:46;;;;;;;35.85;33.10;;;;;;;17.39;49.07;101120.72;5012528;28;20034;-83
2023/04/21 11:00:17;;;;;;;35.05;32.22;;;;;;;17.42;48.55;101117.44;5012340;28;20045;-82
2023/04/21 11:02:43;;;;;;;34.60;31.80;;;;;;;17.47;48.86;101113.88;5013579;28;20041;-82
2023/04/21 11:05:09;;;;;;;36.10;33.10;;;;;;;17.50;48.78;101108.66;5013413;28;20030;-82